Boat of Garten, United Kingdom
Current Conditions -  °F | °C
As of 12:20 PM on Friday 24 Oct 2014 (Local Time) from EGPE Reporting Station
Scattered Clouds Scattered Clouds  
Wind Chill: 52°   Ceiling: Unl
Heat Index: 52°   Visibility: 6mi
Dew Point: 43°   Wind: 17mph
Humidity: 71%   Direction: 210°SSW
Pressure: 29.62"   Gusts: NA
Location:  57.25°N, 3.75°W
Report Text: EGPE 241120Z 21015KT 9999 FEW032 SCT048 11/06 Q1003
Loading
Personal Weather Stations






























Interactive Weather Map
Tropical Storm Tracking
New forecast layout! Learn more

10-Day Weather Forecast

Advertisements
Track Severe Weather on mobile